DHYPE EDDG-EDDG
Flight info
| Callsign | DHYPE |
|---|---|
| Flight time | 0h 12m |
| Altitude | |
| Route | |
| Aircraft | EC45 |
Departure
| Time | 2026-04-29 18:14 |
|---|---|
| Airport | Münster Osnabrück Airport (EDDG) |
Arrival
| Time | 2026-04-29 18:27 |
|---|---|
| Airport | Münster Osnabrück Airport (EDDG) |
| Time | Latitude | Longitude | Altitude | Speed | Heading |
|---|---|---|---|---|---|
| 2026-04-29 18:02 | 52.13123 | 7.68239 | 165 ft | 0 kts | 91° |
| 2026-04-29 18:07 | 52.13124 | 7.68239 | 165 ft | 0 kts | 94° |
| 2026-04-29 18:08 | 52.13123 | 7.68235 | 185 ft | 4 kts | 98° |
| 2026-04-29 18:09 | 52.13154 | 7.68317 | 198 ft | 17 kts | 49° |
| 2026-04-29 18:09 | 52.13253 | 7.68334 | 182 ft | 4 kts | 325° |
| 2026-04-29 18:09 | 52.13288 | 7.68315 | 199 ft | 2 kts | 320° |
| 2026-04-29 18:09 | 52.13315 | 7.68303 | 174 ft | 1 kts | 320° |
| 2026-04-29 18:10 | 52.13315 | 7.68297 | 167 ft | 1 kts | 320° |
| 2026-04-29 18:10 | 52.13321 | 7.68292 | 166 ft | 0 kts | 320° |
| 2026-04-29 18:11 | 52.13322 | 7.68292 | 169 ft | 0 kts | 320° |
| 2026-04-29 18:12 | 52.13325 | 7.68293 | 169 ft | 1 kts | 320° |
| 2026-04-29 18:12 | 52.13322 | 7.68289 | 166 ft | 0 kts | 318° |
| 2026-04-29 18:13 | 52.13326 | 7.68287 | 178 ft | 6 kts | 320° |
| 2026-04-29 18:13 | 52.13399 | 7.68290 | 202 ft | 20 kts | 22° |
| 2026-04-29 18:14 | 52.13495 | 7.68741 | 329 ft | 71 kts | 73° |
| 2026-04-29 18:14 | 52.13690 | 7.69661 | 396 ft | 97 kts | 69° |
| 2026-04-29 18:14 | 52.13871 | 7.70732 | 579 ft | 90 kts | 91° |
| 2026-04-29 18:14 | 52.13493 | 7.71339 | 876 ft | 85 kts | 170° |
| 2026-04-29 18:15 | 52.12969 | 7.70921 | 1066 ft | 89 kts | 244° |
| 2026-04-29 18:15 | 52.12599 | 7.70045 | 1089 ft | 100 kts | 250° |
| 2026-04-29 18:15 | 52.12279 | 7.68932 | 999 ft | 118 kts | 252° |
| 2026-04-29 18:15 | 52.11940 | 7.67695 | 928 ft | 118 kts | 250° |
| 2026-04-29 18:16 | 52.11594 | 7.66540 | 879 ft | 109 kts | 249° |
| 2026-04-29 18:16 | 52.11252 | 7.65503 | 839 ft | 100 kts | 251° |
| 2026-04-29 18:16 | 52.11173 | 7.64705 | 930 ft | 62 kts | 30° |
| 2026-04-29 18:16 | 52.11702 | 7.64477 | 664 ft | 95 kts | 26° |
| 2026-04-29 18:17 | 52.12300 | 7.65127 | 491 ft | 110 kts | 45° |
| 2026-04-29 18:17 | 52.12818 | 7.66091 | 353 ft | 117 kts | 54° |
| 2026-04-29 18:17 | 52.13193 | 7.67278 | 262 ft | 121 kts | 71° |
| 2026-04-29 18:17 | 52.13451 | 7.68551 | 272 ft | 113 kts | 70° |
| 2026-04-29 18:18 | 52.13612 | 7.69330 | 320 ft | 107 kts | 72° |
| 2026-04-29 18:18 | 52.13816 | 7.70439 | 437 ft | 98 kts | 76° |
| 2026-04-29 18:18 | 52.13609 | 7.71256 | 695 ft | 88 kts | 167° |
| 2026-04-29 18:18 | 52.12984 | 7.70815 | 725 ft | 115 kts | 231° |
| 2026-04-29 18:19 | 52.12610 | 7.69574 | 628 ft | 127 kts | 252° |
| 2026-04-29 18:19 | 52.12235 | 7.68254 | 589 ft | 129 kts | 251° |
| 2026-04-29 18:19 | 52.11898 | 7.66887 | 572 ft | 131 kts | 257° |
| 2026-04-29 18:19 | 52.12159 | 7.66006 | 726 ft | 90 kts | 2° |
| 2026-04-29 18:20 | 52.12792 | 7.66351 | 458 ft | 110 kts | 39° |
| 2026-04-29 18:20 | 52.13232 | 7.67435 | 261 ft | 122 kts | 70° |
| 2026-04-29 18:20 | 52.13506 | 7.68714 | 208 ft | 117 kts | 72° |
| 2026-04-29 18:20 | 52.13749 | 7.69909 | 314 ft | 101 kts | 73° |
| 2026-04-29 18:21 | 52.14031 | 7.70824 | 466 ft | 88 kts | 43° |
| 2026-04-29 18:21 | 52.14590 | 7.70678 | 568 ft | 96 kts | 330° |
| 2026-04-29 18:21 | 52.14650 | 7.69591 | 659 ft | 103 kts | 265° |
| 2026-04-29 18:21 | 52.14420 | 7.68410 | 700 ft | 114 kts | 256° |
| 2026-04-29 18:22 | 52.14098 | 7.67178 | 695 ft | 120 kts | 256° |
| 2026-04-29 18:22 | 52.13786 | 7.65922 | 751 ft | 119 kts | 256° |
| 2026-04-29 18:22 | 52.13342 | 7.64867 | 731 ft | 109 kts | 192° |
| 2026-04-29 18:22 | 52.13006 | 7.65657 | 537 ft | 102 kts | 89° |
| 2026-04-29 18:23 | 52.13132 | 7.66909 | 282 ft | 119 kts | 72° |
| 2026-04-29 18:23 | 52.13391 | 7.68173 | 215 ft | 116 kts | 72° |
| 2026-04-29 18:23 | 52.13646 | 7.69384 | 222 ft | 111 kts | 71° |
| 2026-04-29 18:23 | 52.13840 | 7.70388 | 558 ft | 80 kts | 87° |
| 2026-04-29 18:24 | 52.13430 | 7.70820 | 646 ft | 107 kts | 205° |
| 2026-04-29 18:24 | 52.12972 | 7.69678 | 420 ft | 129 kts | 249° |
| 2026-04-29 18:24 | 52.12534 | 7.68390 | 358 ft | 126 kts | 247° |
| 2026-04-29 18:24 | 52.12137 | 7.67192 | 524 ft | 116 kts | 252° |
| 2026-04-29 18:25 | 52.11917 | 7.65998 | 641 ft | 105 kts | 296° |
| 2026-04-29 18:25 | 52.12478 | 7.65735 | 596 ft | 96 kts | 27° |
| 2026-04-29 18:25 | 52.12993 | 7.66546 | 353 ft | 114 kts | 59° |
| 2026-04-29 18:25 | 52.13309 | 7.67736 | 262 ft | 116 kts | 73° |
| 2026-04-29 18:26 | 52.13559 | 7.68952 | 252 ft | 111 kts | 72° |
| 2026-04-29 18:26 | 52.13791 | 7.69990 | 574 ft | 79 kts | 76° |
| 2026-04-29 18:26 | 52.13627 | 7.70726 | 743 ft | 90 kts | 154° |
| 2026-04-29 18:26 | 52.12958 | 7.70832 | 791 ft | 99 kts | 179° |
| 2026-04-29 18:27 | 52.12308 | 7.70896 | 876 ft | 83 kts | 216° |
| 2026-04-29 18:27 | 52.11844 | 7.70822 | 1258 ft | 48 kts | 242° |
| 2026-04-29 18:27 | 52.11668 | 7.70490 | 1542 ft | 33 kts | 317° |
| 2026-04-29 18:27 | 52.11805 | 7.70041 | 1432 ft | 56 kts | 327° |
| 2026-04-29 18:28 | 52.12082 | 7.69654 | 1337 ft | 42 kts | 334° |
| 2026-04-29 18:28 | 52.12288 | 7.69538 | 1236 ft | 25 kts | 327° |
| 2026-04-29 18:28 | 52.12436 | 7.69692 | 1087 ft | 31 kts | 330° |
| 2026-04-29 18:28 | 52.12519 | 7.69941 | 978 ft | 13 kts | 311° |
| 2026-04-29 18:29 | 52.12514 | 7.69938 | 852 ft | 13 kts | 284° |
| 2026-04-29 18:29 | 52.12490 | 7.69830 | 759 ft | 16 kts | 285° |
| 2026-04-29 18:29 | 52.12469 | 7.69680 | 646 ft | 4 kts | 285° |
| 2026-04-29 18:29 | 52.12446 | 7.69793 | 702 ft | 17 kts | 285° |
| 2026-04-29 18:30 | 52.12458 | 7.69878 | 902 ft | 8 kts | 285° |
| 2026-04-29 18:30 | 52.12527 | 7.69721 | 920 ft | 25 kts | 285° |
| 2026-04-29 18:30 | 52.12559 | 7.69543 | 813 ft | 7 kts | 284° |
| 2026-04-29 18:30 | 52.12522 | 7.69528 | 817 ft | 9 kts | 284° |
| 2026-04-29 18:31 | 52.12445 | 7.69580 | 909 ft | 16 kts | 285° |
| 2026-04-29 18:31 | 52.12427 | 7.68868 | 750 ft | 99 kts | 272° |
| 2026-04-29 18:31 | 52.12329 | 7.67666 | 672 ft | 115 kts | 257° |
| 2026-04-29 18:31 | 52.12131 | 7.66346 | 516 ft | 124 kts | 260° |
| 2026-04-29 18:32 | 52.12412 | 7.65463 | 582 ft | 81 kts | 9° |
| 2026-04-29 18:32 | 52.13167 | 7.67097 | 282 ft | 104 kts | 68° |
| 2026-04-29 18:32 | 52.13395 | 7.68228 | 276 ft | 107 kts | 68° |
| 2026-04-29 18:33 | 52.13624 | 7.69374 | 270 ft | 107 kts | 66° |
| 2026-04-29 18:33 | 52.13895 | 7.70408 | 474 ft | 81 kts | 64° |
| 2026-04-29 18:33 | 52.14259 | 7.71152 | 500 ft | 87 kts | 23° |
| 2026-04-29 18:33 | 52.14831 | 7.70825 | 514 ft | 104 kts | 311° |
| 2026-04-29 18:34 | 52.14861 | 7.69580 | 454 ft | 124 kts | 251° |
| 2026-04-29 18:34 | 52.14657 | 7.68690 | 394 ft | 125 kts | 251° |
| 2026-04-29 18:34 | 52.14223 | 7.67000 | 379 ft | 124 kts | 249° |
| 2026-04-29 18:34 | 52.13861 | 7.65742 | 359 ft | 121 kts | 248° |
| 2026-04-29 18:35 | 52.13479 | 7.64643 | 445 ft | 104 kts | 221° |
| 2026-04-29 18:35 | 52.13015 | 7.64934 | 584 ft | 85 kts | 82° |
| 2026-04-29 18:35 | 52.13153 | 7.65977 | 376 ft | 106 kts | 73° |
| 2026-04-29 18:35 | 52.13397 | 7.67125 | 266 ft | 109 kts | 65° |
| 2026-04-29 18:36 | 52.13644 | 7.68268 | 253 ft | 105 kts | 69° |
| 2026-04-29 18:36 | 52.13853 | 7.69388 | 279 ft | 101 kts | 68° |
| 2026-04-29 18:36 | 52.14073 | 7.70433 | 351 ft | 94 kts | 63° |
| 2026-04-29 18:36 | 52.14570 | 7.70884 | 433 ft | 86 kts | 351° |
| 2026-04-29 18:37 | 52.14797 | 7.70050 | 544 ft | 97 kts | 255° |
| 2026-04-29 18:37 | 52.14542 | 7.68995 | 584 ft | 107 kts | 251° |
| 2026-04-29 18:37 | 52.14288 | 7.67796 | 577 ft | 116 kts | 252° |
| 2026-04-29 18:37 | 52.14045 | 7.66507 | 488 ft | 122 kts | 257° |
| 2026-04-29 18:38 | 52.13608 | 7.65363 | 436 ft | 124 kts | 199° |
| 2026-04-29 18:38 | 52.13016 | 7.65888 | 452 ft | 98 kts | 85° |
| 2026-04-29 18:38 | 52.13140 | 7.67042 | 269 ft | 111 kts | 67° |
| 2026-04-29 18:38 | 52.13407 | 7.68234 | 208 ft | 108 kts | 65° |
| 2026-04-29 18:39 | 52.13647 | 7.69368 | 207 ft | 105 kts | 64° |
| 2026-04-29 18:39 | 52.13847 | 7.70257 | 398 ft | 87 kts | 64° |
| 2026-04-29 18:39 | 52.14297 | 7.70817 | 378 ft | 89 kts | 2° |
| 2026-04-29 18:39 | 52.14820 | 7.70352 | 410 ft | 88 kts | 321° |
| 2026-04-29 18:40 | 52.14913 | 7.69342 | 437 ft | 94 kts | 277° |
| 2026-04-29 18:40 | 52.14869 | 7.68245 | 485 ft | 101 kts | 258° |
| 2026-04-29 18:40 | 52.14723 | 7.67083 | 573 ft | 108 kts | 252° |
| 2026-04-29 18:40 | 52.14412 | 7.65903 | 618 ft | 115 kts | 212° |
| 2026-04-29 18:41 | 52.13251 | 7.67512 | 315 ft | 82 kts | 50° |
| 2026-04-29 18:41 | 52.13355 | 7.68140 | 215 ft | 33 kts | 6° |
| 2026-04-29 18:42 | 52.13332 | 7.68305 | 173 ft | 6 kts | 270° |
| 2026-04-29 18:42 | 52.13308 | 7.68293 | 166 ft | 0 kts | 112° |
| 2026-04-29 18:44 | 52.13260 | 7.68320 | 178 ft | 21 kts | 130° |
| 2026-04-29 18:44 | 52.13162 | 7.68330 | 165 ft | 2 kts | 275° |